createdAt,value
2024-05-09T00:00:18.199Z,78.45
2024-05-09T00:02:14.354Z,77.76
2024-05-09T00:04:06.479Z,77.87
2024-05-09T00:05:58.655Z,78.06
2024-05-09T00:07:50.511Z,77.85
2024-05-09T00:09:42.279Z,78.10
2024-05-09T00:11:35.320Z,78.16
2024-05-09T00:13:27.670Z,77.92
2024-05-09T00:15:19.437Z,77.86
2024-05-09T00:17:11.233Z,77.66
2024-05-09T00:19:03.618Z,79.06
2024-05-09T00:20:56.055Z,78.50
2024-05-09T00:22:47.977Z,79.27
2024-05-09T00:24:39.932Z,77.87
2024-05-09T00:26:35.680Z,79.01
2024-05-09T00:28:27.482Z,78.96
2024-05-09T00:30:27.791Z,78.23
2024-05-09T00:32:25.053Z,77.84
2024-05-09T00:34:16.986Z,77.98
2024-05-09T00:36:09.016Z,78.21
2024-05-09T00:38:01.000Z,78.60
2024-05-09T00:39:52.975Z,78.39
2024-05-09T00:41:44.852Z,78.05
2024-05-09T00:43:36.680Z,78.34
2024-05-09T00:45:28.412Z,78.33
2024-05-09T00:47:20.366Z,78.26
2024-05-09T00:49:12.474Z,78.54
2024-05-09T00:51:07.535Z,79.00
2024-05-09T00:53:00.591Z,79.02
2024-05-09T00:54:53.234Z,78.99
2024-05-09T00:56:45.579Z,78.70
2024-05-09T00:58:41.977Z,79.04
2024-05-09T01:00:39.069Z,78.58
2024-05-09T01:02:32.924Z,79.25
2024-05-09T01:04:24.953Z,78.98
2024-05-09T01:06:16.723Z,78.88
2024-05-09T01:08:09.355Z,78.97
2024-05-09T01:10:01.556Z,78.46
2024-05-09T01:11:57.998Z,78.46
2024-05-09T01:13:49.768Z,78.38
2024-05-09T01:15:41.733Z,78.78
2024-05-09T01:17:34.174Z,78.54
2024-05-09T01:19:40.209Z,79.39
2024-05-09T01:21:32.228Z,78.51
2024-05-09T01:23:26.900Z,78.36
2024-05-09T01:25:18.628Z,78.56
2024-05-09T01:27:10.787Z,78.96
2024-05-09T01:29:02.600Z,78.45
2024-05-09T06:57:51.079Z,79.70
2024-05-09T06:59:23.407Z,79.63
2024-05-09T07:00:55.359Z,78.99
2024-05-09T07:02:27.271Z,80.20
2024-05-09T07:03:59.501Z,80.18
2024-05-09T07:05:31.429Z,80.05
2024-05-09T07:07:04.447Z,78.49
2024-05-09T07:08:36.356Z,80.40
2024-05-09T07:10:12.272Z,79.86
2024-05-09T07:11:46.863Z,80.70
2024-05-09T07:13:18.772Z,79.59
2024-05-09T07:15:10.751Z,79.68
2024-05-09T07:17:02.608Z,80.44
2024-05-09T07:18:54.625Z,80.40
2024-05-09T07:20:47.017Z,79.87
2024-05-09T07:22:39.109Z,79.58
2024-05-09T07:24:30.827Z,79.33
2024-05-09T07:26:22.618Z,80.00
2024-05-09T07:28:14.568Z,79.67
2024-05-09T07:30:07.345Z,79.86
2024-05-09T07:31:59.183Z,79.30
2024-05-09T07:33:51.283Z,79.83
2024-05-09T07:35:43.100Z,79.72
2024-05-09T07:37:34.898Z,79.63
2024-05-09T07:39:26.637Z,79.20
2024-05-09T07:41:18.416Z,79.49
2024-05-09T07:43:10.166Z,79.49
2024-05-09T07:45:21.050Z,79.42
2024-05-09T07:48:28.029Z,79.27
2024-05-09T07:54:29.803Z,80.02
2024-05-09T07:56:01.940Z,80.04
2024-05-09T07:57:33.849Z,80.21
2024-05-09T07:59:05.693Z,79.74
2024-05-09T08:00:37.539Z,78.85
2024-05-09T08:02:09.729Z,79.96
2024-05-09T08:03:41.753Z,80.28
2024-05-09T08:05:14.203Z,79.31
2024-05-09T08:06:46.221Z,79.68
2024-05-09T08:08:18.105Z,79.81
2024-05-09T08:09:49.962Z,80.66
2024-05-09T08:11:21.943Z,79.19
2024-05-09T08:12:54.129Z,78.60
2024-05-09T08:14:26.003Z,80.54
2024-05-09T08:15:58.040Z,79.08
2024-05-09T08:17:29.897Z,80.35
2024-05-09T08:19:01.945Z,79.94
2024-05-09T08:20:35.428Z,79.68
2024-05-09T08:22:07.799Z,79.50
2024-05-09T08:23:39.564Z,79.79
2024-05-09T08:25:13.541Z,79.79
2024-05-09T08:26:45.814Z,79.18
2024-05-09T08:28:17.821Z,79.50
2024-05-09T08:29:49.750Z,79.77
2024-05-09T08:31:21.621Z,79.59
2024-05-09T08:32:53.549Z,80.37
2024-05-09T08:34:45.755Z,79.79
2024-05-09T08:36:37.616Z,79.99
2024-05-09T08:38:29.525Z,79.87
2024-05-09T08:40:30.544Z,80.39
2024-05-09T08:42:28.255Z,79.88
2024-05-09T08:44:20.691Z,80.53
2024-05-09T08:46:12.473Z,79.67
2024-05-09T08:48:06.478Z,80.35
2024-05-09T08:49:58.802Z,79.62
2024-05-09T08:51:50.902Z,79.73
2024-05-09T08:53:42.739Z,80.16
2024-05-09T08:55:35.870Z,79.85
2024-05-09T08:57:29.293Z,79.88
2024-05-09T08:59:25.137Z,80.16
2024-05-09T09:01:17.702Z,79.68
2024-05-09T09:03:10.871Z,80.50
2024-05-09T09:05:10.311Z,80.14
2024-05-09T09:07:04.107Z,80.62
2024-05-09T09:08:59.237Z,80.84
2024-05-09T09:10:51.020Z,80.79
2024-05-09T09:12:42.825Z,80.26
2024-05-09T09:14:34.603Z,80.14
2024-05-09T09:16:26.613Z,80.84
2024-05-09T09:18:19.828Z,81.20
2024-05-09T09:20:16.441Z,80.65
2024-05-09T09:22:11.204Z,82.71
2024-05-09T09:24:03.502Z,81.77
2024-05-09T09:25:55.273Z,81.31
2024-05-09T09:27:52.926Z,81.22
2024-05-09T09:29:45.377Z,81.76
2024-05-09T09:31:39.160Z,80.88
2024-05-09T09:33:32.187Z,81.60
2024-05-09T09:35:24.579Z,80.65
2024-05-09T09:37:30.739Z,81.26
2024-05-09T09:39:22.908Z,81.52
2024-05-09T09:41:14.757Z,81.23
2024-05-09T09:43:09.756Z,80.90
2024-05-09T09:45:05.223Z,81.07
2024-05-09T09:46:58.858Z,80.39
2024-05-09T09:48:55.894Z,80.33
2024-05-09T09:50:48.548Z,79.83
2024-05-09T09:52:41.506Z,80.14
2024-05-09T09:54:33.836Z,79.84
2024-05-09T09:56:27.710Z,79.82
2024-05-09T09:58:20.450Z,79.76
2024-05-09T10:00:20.733Z,79.43
2024-05-09T10:02:16.092Z,78.66
2024-05-09T10:04:08.283Z,79.17
2024-05-09T10:06:00.824Z,79.16
2024-05-09T10:07:54.576Z,79.64
2024-05-09T10:09:46.844Z,77.41
2024-05-09T10:11:45.594Z,77.86
2024-05-09T10:13:41.235Z,77.70
2024-05-09T10:15:33.076Z,79.64
2024-05-09T10:17:25.569Z,79.55
2024-05-09T10:19:17.662Z,77.33
2024-05-09T10:21:09.578Z,76.10
2024-05-09T10:23:07.200Z,77.92
2024-05-09T10:25:12.856Z,78.90
2024-05-09T10:27:12.062Z,78.40
2024-05-09T10:29:03.827Z,79.14
2024-05-09T10:30:55.809Z,79.44
2024-05-09T10:32:48.666Z,79.17
2024-05-09T10:34:41.989Z,79.39
2024-05-09T10:36:46.579Z,78.64
2024-05-09T10:38:38.592Z,78.81
2024-05-09T10:40:36.280Z,78.53
2024-05-09T10:42:30.230Z,77.79
2024-05-09T10:44:22.075Z,78.02
2024-05-09T10:46:13.974Z,77.61
2024-05-09T10:48:06.078Z,79.16
2024-05-09T10:49:59.208Z,78.87
2024-05-09T10:51:51.139Z,79.24
2024-05-09T10:53:42.950Z,78.72
2024-05-09T10:55:34.972Z,76.56
2024-05-09T10:57:27.469Z,79.78
2024-05-09T10:59:19.275Z,78.06
2024-05-09T11:01:11.649Z,77.83
2024-05-09T11:03:03.783Z,79.70
2024-05-09T11:04:56.994Z,79.10
2024-05-09T11:06:49.197Z,80.49
2024-05-09T11:08:41.855Z,78.74
2024-05-09T11:10:34.679Z,78.66
2024-05-09T11:12:27.240Z,78.29
2024-05-09T11:14:18.955Z,78.25
2024-05-09T11:16:10.807Z,79.06
2024-05-09T11:18:02.679Z,78.37
2024-05-09T11:19:58.213Z,78.43
2024-05-09T11:21:50.041Z,78.60
2024-05-09T11:23:43.569Z,77.99
2024-05-09T11:25:35.466Z,79.50
2024-05-09T11:27:27.235Z,79.35
2024-05-09T11:29:19.821Z,79.27
2024-05-09T11:31:11.824Z,78.34
2024-05-09T11:33:03.890Z,78.86
2024-05-09T11:34:55.996Z,78.09
2024-05-09T11:36:47.785Z,79.31
2024-05-09T11:38:39.637Z,78.16
2024-05-09T11:42:23.841Z,79.04
2024-05-09T11:44:15.568Z,79.50
2024-05-09T11:46:07.326Z,78.60
2024-05-09T11:47:59.930Z,78.21
2024-05-09T11:49:51.880Z,78.16
2024-05-09T11:51:43.739Z,78.48
2024-05-09T11:53:35.517Z,77.96
2024-05-09T11:55:28.540Z,79.13
2024-05-09T11:57:20.513Z,79.37
2024-05-09T11:59:12.447Z,78.71
2024-05-09T12:01:04.552Z,78.47
2024-05-09T12:02:56.480Z,77.77
2024-05-09T12:04:48.415Z,78.62
2024-05-09T12:06:40.829Z,78.71
2024-05-09T12:08:32.707Z,77.43
2024-05-09T12:10:32.564Z,78.29
2024-05-09T12:12:26.994Z,77.78
2024-05-09T12:14:18.723Z,77.96
2024-05-09T12:16:10.518Z,78.38
2024-05-09T12:18:03.913Z,78.99
2024-05-09T12:19:57.043Z,78.70
2024-05-09T12:21:48.853Z,78.35
2024-05-09T12:23:40.666Z,78.61
2024-05-09T12:25:32.488Z,77.71
2024-05-09T12:27:24.993Z,77.70
2024-05-09T12:29:16.710Z,78.04
2024-05-09T12:31:08.454Z,78.31
2024-05-09T12:33:00.306Z,78.38
2024-05-09T12:34:52.135Z,78.02
2024-05-09T12:36:43.928Z,77.91
2024-05-09T12:38:35.722Z,77.76
2024-05-09T12:40:35.555Z,76.69
2024-05-09T12:42:31.351Z,77.21
2024-05-09T12:44:25.155Z,77.23
2024-05-09T12:46:16.937Z,77.48
2024-05-09T12:48:08.977Z,77.51
2024-05-09T12:50:00.907Z,77.45
2024-05-09T12:51:52.686Z,77.67
2024-05-09T12:53:44.669Z,77.55
2024-05-09T12:55:44.111Z,77.65
2024-05-09T12:57:40.858Z,76.96
2024-05-09T12:59:32.641Z,77.07
2024-05-09T13:01:24.655Z,77.83
2024-05-09T13:03:16.690Z,78.16
2024-05-09T13:05:08.814Z,78.34
2024-05-09T13:07:00.769Z,78.45
2024-05-09T13:08:52.705Z,77.80
2024-05-09T13:10:44.940Z,78.17
2024-05-09T13:12:36.723Z,77.96
2024-05-09T13:14:28.494Z,78.32
2024-05-09T13:16:20.461Z,78.99
2024-05-09T13:18:12.482Z,79.03
2024-05-09T13:20:05.525Z,79.61
2024-05-09T13:21:58.793Z,79.18
2024-05-09T13:23:50.515Z,79.15
2024-05-09T13:25:42.243Z,79.38
2024-05-09T13:27:34.148Z,79.07
2024-05-09T13:29:25.914Z,79.22
2024-05-09T13:31:17.838Z,78.22
2024-05-09T13:33:10.680Z,78.92
2024-05-09T13:35:03.315Z,79.17
2024-05-09T13:36:55.231Z,78.15
2024-05-09T13:38:47.332Z,79.36
2024-05-09T13:40:39.146Z,79.60
2024-05-09T13:42:31.000Z,78.66
2024-05-09T13:44:23.691Z,79.28
2024-05-09T13:46:15.647Z,78.83
2024-05-09T13:48:07.607Z,78.52
2024-05-09T13:49:59.539Z,79.19
2024-05-09T13:51:51.305Z,78.71
2024-05-09T13:53:43.100Z,79.15
2024-05-09T13:55:34.929Z,79.43
2024-05-09T13:57:26.825Z,79.36
2024-05-09T13:59:18.757Z,79.09
2024-05-09T14:01:10.722Z,79.00
2024-05-09T14:03:02.730Z,79.28
2024-05-09T14:04:54.696Z,79.35
2024-05-09T14:06:46.727Z,79.16
2024-05-09T14:08:38.786Z,79.00
2024-05-09T14:10:31.977Z,79.15
2024-05-09T14:12:24.656Z,79.68
2024-05-09T14:14:16.452Z,79.20
2024-05-09T14:16:08.639Z,79.66
2024-05-09T14:18:00.568Z,80.13
2024-05-09T14:19:52.359Z,79.99
2024-05-09T14:21:44.136Z,80.62
2024-05-09T14:23:38.264Z,80.00
2024-05-09T14:25:30.052Z,80.50
2024-05-09T14:27:21.916Z,80.17
2024-05-09T14:29:14.057Z,80.57
2024-05-09T14:31:05.936Z,81.03
2024-05-09T14:32:57.756Z,81.00
2024-05-09T14:34:50.660Z,81.30
2024-05-09T14:36:42.592Z,81.53
2024-05-09T14:38:34.434Z,81.18
2024-05-09T14:40:37.021Z,81.28
2024-05-09T14:42:33.839Z,81.55
2024-05-09T14:44:25.796Z,81.87
2024-05-09T14:46:17.656Z,81.87
2024-05-09T14:48:09.999Z,81.64
2024-05-09T14:50:02.231Z,81.81
2024-05-09T14:51:54.613Z,82.00
2024-05-09T14:53:46.330Z,82.22
2024-05-09T14:55:38.383Z,82.25
2024-05-09T14:57:30.417Z,82.47
2024-05-09T14:59:22.265Z,82.31
2024-05-09T15:01:14.133Z,82.13
2024-05-09T15:03:05.993Z,82.28
2024-05-09T15:04:57.912Z,82.03
2024-05-09T15:06:49.854Z,82.13
2024-05-09T15:08:41.648Z,81.80
2024-05-09T15:10:35.909Z,82.36
2024-05-09T15:12:28.946Z,82.60
2024-05-09T15:14:20.681Z,81.67
2024-05-09T15:16:12.651Z,82.50
2024-05-09T15:18:05.293Z,82.38
2024-05-09T15:19:57.509Z,82.46
2024-05-09T15:22:08.389Z,82.28
2024-05-09T15:24:00.315Z,82.85
2024-05-09T15:25:55.854Z,83.46
2024-05-09T15:27:47.949Z,83.71
2024-05-09T15:29:39.717Z,82.67
2024-05-09T15:31:31.614Z,82.94
2024-05-09T15:33:23.623Z,83.06
2024-05-09T15:35:15.955Z,82.96
2024-05-09T15:37:07.858Z,82.98
2024-05-09T15:38:59.620Z,83.36
2024-05-09T15:40:51.572Z,83.43
2024-05-09T15:42:43.527Z,82.99
2024-05-09T15:44:35.321Z,83.42
2024-05-09T15:46:27.560Z,83.11
2024-05-09T15:48:19.640Z,83.07
2024-05-09T15:50:20.252Z,83.36
2024-05-09T15:52:19.668Z,83.57
2024-05-09T15:54:11.464Z,83.62
2024-05-09T15:56:03.335Z,83.73
2024-05-09T15:57:55.148Z,83.55
2024-05-09T15:59:47.119Z,83.99
2024-05-09T16:01:38.899Z,84.26
2024-05-09T16:03:31.571Z,85.18
2024-05-09T16:05:23.732Z,84.57
2024-05-09T16:07:15.611Z,83.67
2024-05-09T16:09:07.365Z,84.10
2024-05-09T16:11:00.509Z,83.80
2024-05-09T16:12:52.482Z,83.98
2024-05-09T16:14:44.214Z,84.00
2024-05-09T16:16:36.336Z,84.70
2024-05-09T16:18:28.387Z,84.61
2024-05-09T16:20:33.231Z,84.65
2024-05-09T16:22:30.447Z,85.16
2024-05-09T16:24:22.159Z,85.25
2024-05-09T16:26:14.074Z,85.70
2024-05-09T16:28:09.078Z,85.73
2024-05-09T16:30:04.121Z,86.17
2024-05-09T16:31:58.676Z,85.43
2024-05-09T16:33:50.661Z,85.08
2024-05-09T16:35:42.479Z,84.49
2024-05-09T16:37:34.333Z,85.12
2024-05-09T16:39:26.189Z,85.06
2024-05-09T16:41:17.934Z,85.89
2024-05-09T16:43:10.456Z,84.64
2024-05-09T16:45:02.620Z,84.35
2024-05-09T16:46:54.555Z,85.29
2024-05-09T16:48:46.424Z,84.98
2024-05-09T16:50:38.218Z,84.62
2024-05-09T16:52:29.938Z,85.00
2024-05-09T16:54:21.919Z,86.02
2024-05-09T16:56:13.805Z,85.10
2024-05-09T16:58:05.756Z,85.11
2024-05-09T16:59:57.577Z,84.66
2024-05-09T17:01:49.400Z,84.45
2024-05-09T17:03:42.827Z,84.57
2024-05-09T17:05:35.381Z,85.29
2024-05-09T17:07:27.602Z,85.46
2024-05-09T17:09:20.157Z,85.73
2024-05-09T17:11:12.378Z,86.05
2024-05-09T17:13:05.289Z,84.91
2024-05-09T17:14:58.678Z,85.10
2024-05-09T17:16:50.526Z,86.06
2024-05-09T17:18:42.434Z,85.38
2024-05-09T17:20:36.699Z,85.80
2024-05-09T17:22:29.383Z,86.26
2024-05-09T17:24:21.168Z,85.41
2024-05-09T17:26:13.030Z,86.16
2024-05-09T17:28:05.030Z,86.42
2024-05-09T17:29:57.257Z,86.49
2024-05-09T17:31:48.992Z,87.09
2024-05-09T17:33:40.876Z,86.87
2024-05-09T17:35:33.061Z,87.52
2024-05-09T17:37:24.979Z,87.09
2024-05-09T17:39:16.796Z,87.62
2024-05-09T17:41:08.673Z,87.13
2024-05-09T17:43:00.571Z,87.12
2024-05-09T17:44:52.414Z,87.94
2024-05-09T17:46:44.447Z,87.83
2024-05-09T17:48:37.529Z,87.80
2024-05-09T17:52:24.387Z,87.38
2024-05-09T17:54:16.133Z,88.10
2024-05-09T17:56:07.963Z,87.81
2024-05-09T17:57:59.954Z,87.44
2024-05-09T17:59:51.799Z,87.29
2024-05-09T18:01:43.600Z,86.59
2024-05-09T18:03:35.705Z,87.56
2024-05-09T18:05:27.732Z,87.33
2024-05-09T18:07:19.798Z,87.66
2024-05-09T18:09:11.653Z,87.71
2024-05-09T18:11:03.484Z,87.77
2024-05-09T18:12:55.585Z,87.38
2024-05-09T18:14:48.084Z,87.89
2024-05-09T18:16:40.575Z,88.44
2024-05-09T18:18:33.038Z,88.94
2024-05-09T18:20:36.071Z,88.76
2024-05-09T18:22:33.394Z,88.31
2024-05-09T18:24:25.476Z,87.81
2024-05-09T18:26:17.651Z,88.02
2024-05-09T18:28:09.598Z,87.91
2024-05-09T18:30:01.425Z,87.46
2024-05-09T18:31:53.408Z,87.49
2024-05-09T18:33:45.554Z,87.78
2024-05-09T18:35:37.425Z,87.54
2024-05-09T18:37:29.350Z,86.53
2024-05-09T18:39:21.136Z,86.69
2024-05-09T18:41:13.813Z,86.54
2024-05-09T18:43:07.557Z,86.79
2024-05-09T18:45:00.622Z,86.25
2024-05-09T18:46:52.440Z,85.48
2024-05-09T18:48:44.437Z,85.79
2024-05-09T18:50:39.195Z,86.21
2024-05-09T18:52:32.954Z,86.76
2024-05-09T18:54:24.871Z,86.68
2024-05-09T18:56:16.705Z,86.91
2024-05-09T18:58:08.602Z,86.24
2024-05-09T19:00:00.494Z,86.65
2024-05-09T19:01:52.397Z,87.62
2024-05-09T19:03:44.690Z,87.03
2024-05-09T19:05:36.882Z,87.66
2024-05-09T19:07:28.861Z,86.96
2024-05-09T19:09:20.611Z,86.86
2024-05-09T19:11:12.501Z,86.91
2024-05-09T19:13:08.823Z,87.24
2024-05-09T19:15:03.789Z,88.13
2024-05-09T19:16:55.696Z,87.79
2024-05-09T19:18:47.619Z,87.65
2024-05-09T19:20:39.787Z,87.71
2024-05-09T19:22:32.048Z,87.83
2024-05-09T19:24:24.019Z,87.62
2024-05-09T19:26:15.747Z,87.87
2024-05-09T19:28:07.802Z,88.47
2024-05-09T19:29:59.593Z,87.99
2024-05-09T19:31:51.461Z,87.56
2024-05-09T19:33:43.612Z,87.75
2024-05-09T19:35:35.508Z,87.54
2024-05-09T19:37:27.267Z,87.76
2024-05-09T19:39:19.192Z,87.80
2024-05-09T19:41:10.946Z,87.50
2024-05-09T19:43:03.598Z,87.12
2024-05-09T19:44:55.932Z,87.55
2024-05-09T19:46:47.814Z,87.58
2024-05-09T19:48:40.687Z,87.66
2024-05-09T19:50:40.636Z,88.14
2024-05-09T19:52:35.533Z,87.63
2024-05-09T19:54:27.482Z,87.98
2024-05-09T19:56:19.388Z,88.08
2024-05-09T19:58:11.843Z,87.92
2024-05-09T20:00:05.898Z,87.84
2024-05-09T20:01:58.095Z,88.23
2024-05-09T20:03:50.220Z,88.12
2024-05-09T20:05:42.297Z,88.30
2024-05-09T20:07:36.315Z,88.16
2024-05-09T20:09:28.210Z,87.89
2024-05-09T20:11:20.029Z,87.63
2024-05-09T20:13:11.917Z,87.47
2024-05-09T20:15:03.691Z,87.71
2024-05-09T20:16:55.427Z,88.11
2024-05-09T20:18:47.766Z,87.92
2024-05-09T20:20:42.637Z,88.07
2024-05-09T20:22:35.944Z,88.16
2024-05-09T20:24:27.943Z,87.90
2024-05-09T20:26:19.720Z,88.71
2024-05-09T20:28:11.608Z,87.71
2024-05-09T20:30:07.978Z,87.87
2024-05-09T20:32:03.443Z,88.32
2024-05-09T20:33:55.339Z,88.52
2024-05-09T20:35:47.239Z,88.22
2024-05-09T20:37:39.217Z,88.34
2024-05-09T20:39:30.939Z,88.35
2024-05-09T20:41:22.742Z,88.31
2024-05-09T20:43:14.495Z,88.35
2024-05-09T20:45:06.313Z,88.46
2024-05-09T20:46:59.459Z,89.14
2024-05-09T20:48:51.317Z,88.32
2024-05-09T20:50:43.230Z,88.27
2024-05-09T20:52:35.225Z,88.11
2024-05-09T20:54:26.939Z,87.77
2024-05-09T20:56:18.659Z,88.54
2024-05-09T20:58:10.802Z,88.67
2024-05-09T21:00:03.357Z,87.74
2024-05-09T21:01:56.252Z,88.74
2024-05-09T21:03:48.334Z,88.61
2024-05-09T21:05:40.819Z,88.99
2024-05-09T21:07:32.899Z,89.18
2024-05-09T21:09:24.743Z,89.01
2024-05-09T21:11:16.467Z,88.95
2024-05-09T21:13:08.330Z,89.08
2024-05-09T21:15:00.233Z,89.53
2024-05-09T21:16:52.123Z,88.71
2024-05-09T21:18:44.004Z,88.93
2024-05-09T21:20:35.835Z,89.21
2024-05-09T21:22:27.620Z,88.99
2024-05-09T21:24:19.329Z,89.04
2024-05-09T21:26:11.101Z,89.16
2024-05-09T21:28:02.962Z,88.94
2024-05-09T21:29:54.743Z,89.20
2024-05-09T21:31:46.618Z,88.86
2024-05-09T21:33:38.657Z,89.20
2024-05-09T21:35:33.011Z,88.87
2024-05-09T21:37:25.038Z,89.06
2024-05-09T21:39:16.853Z,88.82
2024-05-09T21:41:08.598Z,88.94
2024-05-09T21:43:00.634Z,89.56
2024-05-09T21:44:52.659Z,89.88
2024-05-09T21:46:44.415Z,89.46
2024-05-09T21:48:36.508Z,89.82
2024-05-09T21:50:36.522Z,88.96
2024-05-09T21:52:32.266Z,89.44
2024-05-09T21:54:24.036Z,88.99
2024-05-09T21:56:15.875Z,88.99
2024-05-09T21:58:07.721Z,89.08
2024-05-09T21:59:59.532Z,89.35
2024-05-09T22:01:51.440Z,88.89
2024-05-09T22:03:43.442Z,89.25
2024-05-09T22:05:35.391Z,89.25
2024-05-09T22:07:27.330Z,89.38
2024-05-09T22:09:19.039Z,89.48
2024-05-09T22:11:10.899Z,88.77
2024-05-09T22:13:02.780Z,88.99
2024-05-09T22:14:54.543Z,89.19
2024-05-09T22:16:46.578Z,88.45
2024-05-09T22:18:37.196Z,88.68
2024-05-09T22:20:36.443Z,88.57
2024-05-09T22:22:30.819Z,88.46
2024-05-09T22:24:22.550Z,88.38
2024-05-09T22:26:14.263Z,88.67
2024-05-09T22:28:06.356Z,88.96
2024-05-09T22:29:58.687Z,89.08
2024-05-09T22:31:50.450Z,88.79
2024-05-09T22:33:44.705Z,88.34
2024-05-09T22:35:37.972Z,87.42
2024-05-09T22:37:29.687Z,87.56
2024-05-09T22:39:21.493Z,88.43
2024-05-09T22:41:13.341Z,88.21
2024-05-09T22:43:05.287Z,87.71
2024-05-09T22:44:57.228Z,87.84
2024-05-09T22:46:48.953Z,87.98
2024-05-09T22:48:40.897Z,88.57
2024-05-09T22:50:33.651Z,88.39
2024-05-09T22:52:25.911Z,88.01
2024-05-09T22:53:57.711Z,87.97
2024-05-09T22:55:30.008Z,88.55
2024-05-09T22:57:01.844Z,88.25
2024-05-09T22:58:33.843Z,88.13
2024-05-09T23:00:07.962Z,88.57
2024-05-09T23:01:41.849Z,87.59
2024-05-09T23:03:16.616Z,87.35
2024-05-09T23:04:48.649Z,87.45
2024-05-09T23:06:20.512Z,87.25
2024-05-09T23:07:52.445Z,87.60
2024-05-09T23:09:24.250Z,87.99
2024-05-09T23:10:56.352Z,87.35
2024-05-09T23:12:28.139Z,87.87
2024-05-09T23:14:00.101Z,87.77
2024-05-09T23:15:31.919Z,87.90
2024-05-09T23:17:04.071Z,87.69
2024-05-09T23:18:36.034Z,87.85
2024-05-09T23:20:11.543Z,88.14
2024-05-09T23:21:43.760Z,88.21
2024-05-09T23:23:15.560Z,87.88
2024-05-09T23:24:48.025Z,88.21
2024-05-09T23:26:39.905Z,87.53
2024-05-09T23:28:32.002Z,88.17
2024-05-09T23:30:33.560Z,87.85
2024-05-09T23:32:29.967Z,88.13
2024-05-09T23:34:21.899Z,87.81
2024-05-09T23:36:13.892Z,88.13
2024-05-09T23:38:06.274Z,88.27
2024-05-09T23:39:58.036Z,88.01
2024-05-09T23:41:49.810Z,88.50
2024-05-09T23:43:41.715Z,88.62
2024-05-09T23:45:33.897Z,88.58
2024-05-09T23:47:26.029Z,88.53
2024-05-09T23:49:17.994Z,88.39
2024-05-09T23:51:09.705Z,87.59
2024-05-09T23:53:01.503Z,88.08
2024-05-09T23:54:53.944Z,87.88
2024-05-09T23:56:45.675Z,88.00
2024-05-09T23:58:37.451Z,88.05
